YFC weather

Fredericton Airport
Fredericton, New Brunswick, Canada

Public forecast

Using degrees Celsius for public forecast. Weather courtesy of forecast.io.

Current aviation weather report (METAR) for Fredericton Airport

Retrieved 2020/03/31 06:00 UTC (40 minutes ago):

CYFC 310600Z AUTO 02016G22KT 9SM OVC026 M02/M06 A3011 RMK SLP199

Aviation forecast (TAF) for Fredericton Airport

Retrieved 2020/03/31 06:39 UTC (1 minute ago):

TAF CYFC 310538Z 3106/3118 03012G22KT P6SM BKN015 OVC030 TEMPO 3106/3114 SCT015 OVC030 FM311400 03012G22KT P6SM SCT020 BKN030 TEMPO 3114/3118 BKN020 OVC030 RMK FCST BASED ON AUTO OBS NXT FCST BY 311200Z